sensor_id;sensor_type;location;lat;lon;timestamp;pressure;altitude;pressure_sealevel;temperature;humidity
65384;BME280;51986;52.788;41.368;2023-04-07T00:01:33;99656.31;;;7.51;47.58
65384;BME280;51986;52.788;41.368;2023-04-07T00:04:00;99625.25;;;7.57;47.52
65384;BME280;51986;52.788;41.368;2023-04-07T00:06:28;99664.06;;;7.37;48.09
65384;BME280;51986;52.788;41.368;2023-04-07T00:08:55;99670.84;;;7.41;47.78
65384;BME280;51986;52.788;41.368;2023-04-07T00:11:22;99649.41;;;7.32;48.13
65384;BME280;51986;52.788;41.368;2023-04-07T00:13:49;99647.25;;;7.45;47.74
65384;BME280;51986;52.788;41.368;2023-04-07T00:16:16;99654.66;;;7.36;47.81
65384;BME280;51986;52.788;41.368;2023-04-07T00:18:43;99665.94;;;7.40;47.76
65384;BME280;51986;52.788;41.368;2023-04-07T00:21:10;99650.16;;;7.33;48.00
65384;BME280;51986;52.788;41.368;2023-04-07T00:23:37;99660.41;;;7.08;48.02
65384;BME280;51986;52.788;41.368;2023-04-07T00:26:04;99672.34;;;7.05;48.69
65384;BME280;51986;52.788;41.368;2023-04-07T00:28:31;99656.59;;;7.05;48.64
65384;BME280;51986;52.788;41.368;2023-04-07T00:30:58;99678.06;;;7.14;48.33
65384;BME280;51986;52.788;41.368;2023-04-07T00:33:25;99651.91;;;6.88;49.20
65384;BME280;51986;52.788;41.368;2023-04-07T00:35:52;99666.34;;;7.05;48.63
65384;BME280;51986;52.788;41.368;2023-04-07T00:38:19;99660.22;;;6.93;48.90
65384;BME280;51986;52.788;41.368;2023-04-07T00:40:46;99657.19;;;6.91;49.18
65384;BME280;51986;52.788;41.368;2023-04-07T00:43:13;99639.66;;;6.69;48.91
65384;BME280;51986;52.788;41.368;2023-04-07T00:45:40;99665.72;;;6.85;49.04
65384;BME280;51986;52.788;41.368;2023-04-07T00:48:07;99661.44;;;6.73;49.29
65384;BME280;51986;52.788;41.368;2023-04-07T00:50:34;99658.47;;;6.75;49.37
65384;BME280;51986;52.788;41.368;2023-04-07T00:53:01;99664.19;;;6.54;49.98
65384;BME280;51986;52.788;41.368;2023-04-07T00:55:28;99654.84;;;6.26;50.50
65384;BME280;51986;52.788;41.368;2023-04-07T00:57:55;99633.84;;;6.22;50.07
65384;BME280;51986;52.788;41.368;2023-04-07T01:00:23;99657.81;;;6.25;50.41
65384;BME280;51986;52.788;41.368;2023-04-07T01:02:57;99646.72;;;6.08;50.94
65384;BME280;51986;52.788;41.368;2023-04-07T01:05:41;99670.94;;;6.02;51.43
65384;BME280;51986;52.788;41.368;2023-04-07T01:08:27;99671.88;;;6.13;50.97
65384;BME280;51986;52.788;41.368;2023-04-07T01:11:07;99649.47;;;5.92;50.99
65384;BME280;51986;52.788;41.368;2023-04-07T01:13:43;99670.53;;;5.77;51.40
65384;BME280;51986;52.788;41.368;2023-04-07T01:16:34;99665.75;;;5.82;51.50
65384;BME280;51986;52.788;41.368;2023-04-07T01:19:36;99680.50;;;5.90;51.61
65384;BME280;51986;52.788;41.368;2023-04-07T01:22:14;99657.38;;;5.73;51.33
65384;BME280;51986;52.788;41.368;2023-04-07T01:27:47;99664.38;;;5.65;51.42
65384;BME280;51986;52.788;41.368;2023-04-07T01:30:16;99670.13;;;5.52;51.54
65384;BME280;51986;52.788;41.368;2023-04-07T01:32:46;99674.78;;;5.62;51.79
65384;BME280;51986;52.788;41.368;2023-04-07T01:35:17;99663.50;;;5.58;52.09
65384;BME280;51986;52.788;41.368;2023-04-07T01:37:46;99674.63;;;5.74;51.45
65384;BME280;51986;52.788;41.368;2023-04-07T01:40:15;99687.50;;;5.63;51.45
65384;BME280;51986;52.788;41.368;2023-04-07T01:42:43;99678.66;;;5.49;51.79
65384;BME280;51986;52.788;41.368;2023-04-07T01:45:12;99668.81;;;5.61;51.42
65384;BME280;51986;52.788;41.368;2023-04-07T01:47:40;99682.84;;;5.53;51.55
65384;BME280;51986;52.788;41.368;2023-04-07T01:50:08;99677.59;;;5.50;51.61
65384;BME280;51986;52.788;41.368;2023-04-07T01:52:37;99675.81;;;5.57;51.42
65384;BME280;51986;52.788;41.368;2023-04-07T01:55:04;99662.97;;;5.72;50.73
65384;BME280;51986;52.788;41.368;2023-04-07T01:57:37;99681.41;;;5.56;51.34
65384;BME280;51986;52.788;41.368;2023-04-07T02:00:11;99685.84;;;5.52;51.46
65384;BME280;51986;52.788;41.368;2023-04-07T02:02:43;99695.56;;;5.32;51.72
65384;BME280;51986;52.788;41.368;2023-04-07T02:05:18;99699.88;;;5.43;51.88
65384;BME280;51986;52.788;41.368;2023-04-07T02:07:59;99669.47;;;5.35;51.57
65384;BME280;51986;52.788;41.368;2023-04-07T02:10:31;99702.22;;;5.49;51.03
65384;BME280;51986;52.788;41.368;2023-04-07T02:13:02;99691.22;;;5.39;51.51
65384;BME280;51986;52.788;41.368;2023-04-07T02:15:31;99694.13;;;5.15;51.92
65384;BME280;51986;52.788;41.368;2023-04-07T02:18:00;99698.78;;;5.25;51.72
65384;BME280;51986;52.788;41.368;2023-04-07T02:20:28;99691.78;;;5.10;52.18
65384;BME280;51986;52.788;41.368;2023-04-07T02:22:56;99715.88;;;5.19;51.51
65384;BME280;51986;52.788;41.368;2023-04-07T02:25:28;99685.88;;;5.13;51.51
65384;BME280;51986;52.788;41.368;2023-04-07T02:27:58;99707.75;;;5.05;51.59
65384;BME280;51986;52.788;41.368;2023-04-07T02:30:26;99706.63;;;5.06;51.65
65384;BME280;51986;52.788;41.368;2023-04-07T02:32:55;99712.78;;;5.13;51.53
65384;BME280;51986;52.788;41.368;2023-04-07T02:35:22;99704.38;;;5.04;52.03
65384;BME280;51986;52.788;41.368;2023-04-07T02:37:49;99705.56;;;5.07;51.78
65384;BME280;51986;52.788;41.368;2023-04-07T02:40:17;99693.16;;;5.04;51.48
65384;BME280;51986;52.788;41.368;2023-04-07T02:42:45;99718.13;;;5.21;51.70
65384;BME280;51986;52.788;41.368;2023-04-07T02:45:13;99713.88;;;5.32;50.86
65384;BME280;51986;52.788;41.368;2023-04-07T02:47:40;99731.06;;;5.52;50.35
65384;BME280;51986;52.788;41.368;2023-04-07T02:50:07;99688.84;;;5.54;49.74
65384;BME280;51986;52.788;41.368;2023-04-07T02:52:34;99714.94;;;5.92;48.89
65384;BME280;51986;52.788;41.368;2023-04-07T02:55:07;99716.34;;;6.09;48.87
65384;BME280;51986;52.788;41.368;2023-04-07T02:57:34;99698.22;;;6.24;48.45
65384;BME280;51986;52.788;41.368;2023-04-07T03:00:05;99718.28;;;6.65;47.36
65384;BME280;51986;52.788;41.368;2023-04-07T03:02:55;99706.94;;;7.14;46.02
65384;BME280;51986;52.788;41.368;2023-04-07T03:05:23;99716.03;;;7.24;45.57
65384;BME280;51986;52.788;41.368;2023-04-07T03:07:50;99707.75;;;7.59;45.50
65384;BME280;51986;52.788;41.368;2023-04-07T03:10:17;99697.13;;;7.86;44.28
65384;BME280;51986;52.788;41.368;2023-04-07T03:12:44;99704.03;;;8.05;43.42
65384;BME280;51986;52.788;41.368;2023-04-07T03:15:11;99712.50;;;8.35;42.57
65384;BME280;51986;52.788;41.368;2023-04-07T03:17:43;99682.31;;;8.73;41.39
65384;BME280;51986;52.788;41.368;2023-04-07T03:20:10;99712.53;;;9.08;41.37
65384;BME280;51986;52.788;41.368;2023-04-07T03:22:37;99715.34;;;9.79;39.81
65384;BME280;51986;52.788;41.368;2023-04-07T03:25:09;99729.66;;;10.11;38.71
65384;BME280;51986;52.788;41.368;2023-04-07T03:27:36;99721.75;;;10.25;38.42
65384;BME280;51986;52.788;41.368;2023-04-07T03:30:05;99727.00;;;10.46;38.00
65384;BME280;51986;52.788;41.368;2023-04-07T03:32:33;99721.66;;;10.75;37.47
65384;BME280;51986;52.788;41.368;2023-04-07T03:35:00;99719.72;;;10.93;36.89
65384;BME280;51986;52.788;41.368;2023-04-07T03:37:27;99710.47;;;10.35;38.27
65384;BME280;51986;52.788;41.368;2023-04-07T03:39:54;99686.66;;;11.44;35.78
65384;BME280;51986;52.788;41.368;2023-04-07T03:42:28;99703.84;;;11.67;35.40
65384;BME280;51986;52.788;41.368;2023-04-07T03:45:00;99724.56;;;11.79;35.87
65384;BME280;51986;52.788;41.368;2023-04-07T03:47:28;99719.50;;;12.02;34.98
65384;BME280;51986;52.788;41.368;2023-04-07T03:49:59;99726.91;;;11.63;35.29
65384;BME280;51986;52.788;41.368;2023-04-07T03:52:29;99707.75;;;11.51;35.42
65384;BME280;51986;52.788;41.368;2023-04-07T03:55:03;99737.41;;;11.77;34.90
65384;BME280;51986;52.788;41.368;2023-04-07T03:57:31;99728.47;;;11.56;35.99
65384;BME280;51986;52.788;41.368;2023-04-07T03:59:58;99712.47;;;11.81;35.04
65384;BME280;51986;52.788;41.368;2023-04-07T04:02:29;99723.09;;;11.67;35.80
65384;BME280;51986;52.788;41.368;2023-04-07T04:04:58;99724.59;;;12.24;34.71
65384;BME280;51986;52.788;41.368;2023-04-07T04:07:25;99741.03;;;12.46;33.97
65384;BME280;51986;52.788;41.368;2023-04-07T04:09:55;99737.84;;;11.65;35.29
65384;BME280;51986;52.788;41.368;2023-04-07T04:12:23;99765.31;;;12.33;34.57
65384;BME280;51986;52.788;41.368;2023-04-07T04:15:01;99743.72;;;12.39;34.59
65384;BME280;51986;52.788;41.368;2023-04-07T04:17:30;99757.06;;;11.76;35.68
65384;BME280;51986;52.788;41.368;2023-04-07T04:19:57;99756.38;;;11.61;35.47
65384;BME280;51986;52.788;41.368;2023-04-07T04:22:50;99755.56;;;12.27;34.93
65384;BME280;51986;52.788;41.368;2023-04-07T04:25:18;99737.50;;;12.15;34.12
65384;BME280;51986;52.788;41.368;2023-04-07T04:27:50;99748.91;;;11.49;35.46
65384;BME280;51986;52.788;41.368;2023-04-07T04:30:21;99772.19;;;11.68;35.50
65384;BME280;51986;52.788;41.368;2023-04-07T04:32:53;99761.44;;;11.27;35.66
65384;BME280;51986;52.788;41.368;2023-04-07T04:35:30;99764.25;;;10.84;36.99
65384;BME280;51986;52.788;41.368;2023-04-07T04:38:05;99743.31;;;11.36;36.25
65384;BME280;51986;52.788;41.368;2023-04-07T04:40:34;99766.69;;;11.38;35.58
65384;BME280;51986;52.788;41.368;2023-04-07T04:43:02;99757.41;;;11.01;36.15
65384;BME280;51986;52.788;41.368;2023-04-07T04:45:29;99739.19;;;11.31;36.31
65384;BME280;51986;52.788;41.368;2023-04-07T04:47:57;99773.72;;;10.60;37.32
65384;BME280;51986;52.788;41.368;2023-04-07T04:50:24;99726.59;;;10.73;37.08
65384;BME280;51986;52.788;41.368;2023-04-07T04:52:52;99769.88;;;10.93;36.58
65384;BME280;51986;52.788;41.368;2023-04-07T04:55:21;99755.50;;;11.05;36.65
65384;BME280;51986;52.788;41.368;2023-04-07T04:57:50;99763.41;;;11.08;36.13
65384;BME280;51986;52.788;41.368;2023-04-07T05:00:25;99754.75;;;11.04;36.13
65384;BME280;51986;52.788;41.368;2023-04-07T05:02:58;99747.50;;;11.19;35.83
65384;BME280;51986;52.788;41.368;2023-04-07T05:05:26;99748.84;;;11.56;35.75
65384;BME280;51986;52.788;41.368;2023-04-07T05:07:55;99769.56;;;11.61;35.75
65384;BME280;51986;52.788;41.368;2023-04-07T05:10:24;99773.78;;;11.55;35.81
65384;BME280;51986;52.788;41.368;2023-04-07T05:12:51;99762.56;;;11.33;36.21
65384;BME280;51986;52.788;41.368;2023-04-07T05:15:18;99766.94;;;11.61;34.94
65384;BME280;51986;52.788;41.368;2023-04-07T05:17:48;99738.19;;;11.77;35.45
65384;BME280;51986;52.788;41.368;2023-04-07T05:20:20;99781.06;;;11.99;35.36
65384;BME280;51986;52.788;41.368;2023-04-07T05:22:48;99765.91;;;12.07;34.69
65384;BME280;51986;52.788;41.368;2023-04-07T05:25:17;99770.78;;;11.49;35.87
65384;BME280;51986;52.788;41.368;2023-04-07T05:27:46;99774.38;;;11.84;35.19
65384;BME280;51986;52.788;41.368;2023-04-07T05:30:16;99735.88;;;11.83;35.09
65384;BME280;51986;52.788;41.368;2023-04-07T05:32:50;99755.59;;;11.68;35.52
65384;BME280;51986;52.788;41.368;2023-04-07T05:35:36;99760.66;;;12.03;35.33
65384;BME280;51986;52.788;41.368;2023-04-07T05:38:03;99764.34;;;12.17;34.75
65384;BME280;51986;52.788;41.368;2023-04-07T05:40:30;99771.28;;;11.96;34.98
65384;BME280;51986;52.788;41.368;2023-04-07T05:43:01;99768.00;;;12.30;34.67
65384;BME280;51986;52.788;41.368;2023-04-07T05:45:32;99766.38;;;11.91;34.86
65384;BME280;51986;52.788;41.368;2023-04-07T05:47:59;99774.28;;;12.43;34.21
65384;BME280;51986;52.788;41.368;2023-04-07T05:50:36;99776.09;;;12.53;34.13
65384;BME280;51986;52.788;41.368;2023-04-07T05:53:06;99776.75;;;12.65;34.03
65384;BME280;51986;52.788;41.368;2023-04-07T05:55:33;99779.28;;;12.34;34.69
65384;BME280;51986;52.788;41.368;2023-04-07T05:58:01;99739.91;;;12.43;34.23
65384;BME280;51986;52.788;41.368;2023-04-07T06:00:30;99793.34;;;12.69;33.90
65384;BME280;51986;52.788;41.368;2023-04-07T06:03:17;99788.53;;;12.98;33.25
65384;BME280;51986;52.788;41.368;2023-04-07T06:05:56;99796.25;;;13.19;32.86
65384;BME280;51986;52.788;41.368;2023-04-07T06:08:24;99786.34;;;13.23;33.46
65384;BME280;51986;52.788;41.368;2023-04-07T06:10:51;99783.59;;;12.96;33.37
65384;BME280;51986;52.788;41.368;2023-04-07T06:13:18;99784.59;;;13.13;33.45
65384;BME280;51986;52.788;41.368;2023-04-07T06:15:45;99786.44;;;13.47;32.21
65384;BME280;51986;52.788;41.368;2023-04-07T06:18:12;99790.56;;;13.51;32.84
65384;BME280;51986;52.788;41.368;2023-04-07T06:20:39;99774.16;;;12.95;33.01
65384;BME280;51986;52.788;41.368;2023-04-07T06:23:06;99792.72;;;13.29;33.11
65384;BME280;51986;52.788;41.368;2023-04-07T06:25:34;99814.28;;;12.94;32.95
65384;BME280;51986;52.788;41.368;2023-04-07T06:28:01;99817.19;;;12.69;33.33
65384;BME280;51986;52.788;41.368;2023-04-07T06:30:31;99795.84;;;13.21;32.84
65384;BME280;51986;52.788;41.368;2023-04-07T06:35:44;99789.28;;;12.95;32.53
65384;BME280;51986;52.788;41.368;2023-04-07T06:38:11;99789.00;;;12.48;33.38
65384;BME280;51986;52.788;41.368;2023-04-07T06:40:38;99803.94;;;12.69;33.41
65384;BME280;51986;52.788;41.368;2023-04-07T06:43:05;99789.00;;;12.89;33.54
65384;BME280;51986;52.788;41.368;2023-04-07T06:45:55;99768.09;;;13.02;33.10
65384;BME280;51986;52.788;41.368;2023-04-07T06:48:23;99779.41;;;13.02;33.29
65384;BME280;51986;52.788;41.368;2023-04-07T06:50:50;99815.81;;;12.91;33.25
65384;BME280;51986;52.788;41.368;2023-04-07T06:53:17;99779.69;;;13.42;32.68
65384;BME280;51986;52.788;41.368;2023-04-07T06:55:44;99809.72;;;12.94;33.46
65384;BME280;51986;52.788;41.368;2023-04-07T06:58:13;99787.97;;;12.76;33.53
65384;BME280;51986;52.788;41.368;2023-04-07T07:00:40;99778.28;;;13.03;33.22
65384;BME280;51986;52.788;41.368;2023-04-07T07:03:08;99789.00;;;12.85;33.74
65384;BME280;51986;52.788;41.368;2023-04-07T07:05:36;99797.25;;;12.95;33.93
65384;BME280;51986;52.788;41.368;2023-04-07T07:08:03;99813.91;;;12.54;34.77
65384;BME280;51986;52.788;41.368;2023-04-07T07:10:32;99799.88;;;12.95;34.33
65384;BME280;51986;52.788;41.368;2023-04-07T07:12:59;99803.28;;;12.57;34.10
65384;BME280;51986;52.788;41.368;2023-04-07T07:15:26;99799.31;;;12.76;33.93
65384;BME280;51986;52.788;41.368;2023-04-07T07:17:53;99814.50;;;12.24;34.18
65384;BME280;51986;52.788;41.368;2023-04-07T07:20:20;99798.03;;;12.92;34.23
65384;BME280;51986;52.788;41.368;2023-04-07T07:22:47;99809.69;;;12.60;33.91
65384;BME280;51986;52.788;41.368;2023-04-07T07:25:14;99799.72;;;12.75;33.69
65384;BME280;51986;52.788;41.368;2023-04-07T07:27:41;99798.22;;;12.74;34.15
65384;BME280;51986;52.788;41.368;2023-04-07T07:30:08;99810.56;;;12.87;34.04
65384;BME280;51986;52.788;41.368;2023-04-07T07:32:35;99806.94;;;12.71;33.81
65384;BME280;51986;52.788;41.368;2023-04-07T07:35:02;99769.81;;;12.40;34.09
65384;BME280;51986;52.788;41.368;2023-04-07T07:37:30;99793.03;;;13.01;33.17
65384;BME280;51986;52.788;41.368;2023-04-07T07:39:56;99811.38;;;13.19;33.06
65384;BME280;51986;52.788;41.368;2023-04-07T07:42:24;99803.53;;;13.11;33.42
65384;BME280;51986;52.788;41.368;2023-04-07T07:44:53;99800.09;;;13.45;33.13
65384;BME280;51986;52.788;41.368;2023-04-07T07:47:20;99823.59;;;13.74;32.87
65384;BME280;51986;52.788;41.368;2023-04-07T07:49:48;99803.50;;;14.27;32.29
65384;BME280;51986;52.788;41.368;2023-04-07T07:52:15;99790.41;;;13.62;32.56
65384;BME280;51986;52.788;41.368;2023-04-07T07:54:42;99796.50;;;13.86;32.78
65384;BME280;51986;52.788;41.368;2023-04-07T07:57:09;99799.69;;;14.51;31.74
65384;BME280;51986;52.788;41.368;2023-04-07T07:59:36;99807.28;;;14.73;31.51
65384;BME280;51986;52.788;41.368;2023-04-07T08:02:03;99798.97;;;14.71;31.29
65384;BME280;51986;52.788;41.368;2023-04-07T08:04:30;99801.13;;;14.56;31.11
65384;BME280;51986;52.788;41.368;2023-04-07T08:06:57;99789.69;;;14.35;31.89
65384;BME280;51986;52.788;41.368;2023-04-07T08:09:25;99796.66;;;14.73;30.84
65384;BME280;51986;52.788;41.368;2023-04-07T08:11:52;99791.38;;;14.49;31.63
65384;BME280;51986;52.788;41.368;2023-04-07T08:14:19;99805.81;;;14.48;31.69
65384;BME280;51986;52.788;41.368;2023-04-07T08:16:46;99798.78;;;14.81;31.63
65384;BME280;51986;52.788;41.368;2023-04-07T08:19:14;99799.75;;;15.31;30.84
65384;BME280;51986;52.788;41.368;2023-04-07T08:21:43;99791.13;;;14.63;31.00
65384;BME280;51986;52.788;41.368;2023-04-07T08:24:16;99804.38;;;15.27;30.98
65384;BME280;51986;52.788;41.368;2023-04-07T08:26:43;99793.94;;;14.76;30.78
65384;BME280;51986;52.788;41.368;2023-04-07T08:29:10;99787.72;;;14.83;30.24
65384;BME280;51986;52.788;41.368;2023-04-07T08:31:37;99813.66;;;15.38;30.39
65384;BME280;51986;52.788;41.368;2023-04-07T08:34:04;99798.66;;;14.88;30.30
65384;BME280;51986;52.788;41.368;2023-04-07T08:36:31;99812.19;;;14.74;30.20
65384;BME280;51986;52.788;41.368;2023-04-07T08:39:01;99818.94;;;14.99;30.34
65384;BME280;51986;52.788;41.368;2023-04-07T08:41:39;99793.31;;;15.48;30.14
65384;BME280;51986;52.788;41.368;2023-04-07T08:44:07;99805.72;;;15.15;30.17
65384;BME280;51986;52.788;41.368;2023-04-07T08:46:37;99821.41;;;14.89;30.11
65384;BME280;51986;52.788;41.368;2023-04-07T08:49:08;99801.44;;;15.01;30.34
65384;BME280;51986;52.788;41.368;2023-04-07T08:51:37;99804.28;;;14.71;30.43
65384;BME280;51986;52.788;41.368;2023-04-07T08:54:12;99798.28;;;15.06;30.52
65384;BME280;51986;52.788;41.368;2023-04-07T08:56:41;99795.28;;;15.44;30.09
65384;BME280;51986;52.788;41.368;2023-04-07T08:59:10;99804.47;;;15.23;29.92
65384;BME280;51986;52.788;41.368;2023-04-07T09:01:39;99801.03;;;15.42;30.23
65384;BME280;51986;52.788;41.368;2023-04-07T09:04:08;99814.97;;;14.87;30.65
65384;BME280;51986;52.788;41.368;2023-04-07T09:06:36;99841.88;;;15.32;30.08
65384;BME280;51986;52.788;41.368;2023-04-07T09:09:04;99800.31;;;15.22;29.93
65384;BME280;51986;52.788;41.368;2023-04-07T09:11:37;99808.78;;;15.53;29.87
65384;BME280;51986;52.788;41.368;2023-04-07T09:14:04;99795.81;;;15.55;29.22
65384;BME280;51986;52.788;41.368;2023-04-07T09:16:32;99800.91;;;15.66;30.61
65384;BME280;51986;52.788;41.368;2023-04-07T09:18:59;99791.78;;;15.67;30.10
65384;BME280;51986;52.788;41.368;2023-04-07T09:21:26;99809.41;;;15.77;29.75
65384;BME280;51986;52.788;41.368;2023-04-07T09:24:25;99806.13;;;15.53;29.74
65384;BME280;51986;52.788;41.368;2023-04-07T09:27:15;99758.19;;;15.73;29.65
65384;BME280;51986;52.788;41.368;2023-04-07T09:29:46;99811.63;;;15.62;29.99
65384;BME280;51986;52.788;41.368;2023-04-07T09:32:46;99794.00;;;15.68;30.06
65384;BME280;51986;52.788;41.368;2023-04-07T09:35:13;99806.41;;;15.39;29.87
65384;BME280;51986;52.788;41.368;2023-04-07T09:37:40;99776.72;;;15.24;29.99
65384;BME280;51986;52.788;41.368;2023-04-07T09:40:07;99820.19;;;15.34;30.34
65384;BME280;51986;52.788;41.368;2023-04-07T09:42:43;99806.75;;;15.41;30.07
65384;BME280;51986;52.788;41.368;2023-04-07T09:45:10;99796.97;;;15.54;29.70
65384;BME280;51986;52.788;41.368;2023-04-07T09:47:38;99792.63;;;15.44;30.10
65384;BME280;51986;52.788;41.368;2023-04-07T09:50:06;99798.84;;;15.37;29.82
65384;BME280;51986;52.788;41.368;2023-04-07T09:52:50;99777.34;;;15.32;30.61
65384;BME280;51986;52.788;41.368;2023-04-07T09:55:22;99794.47;;;15.47;30.23
65384;BME280;51986;52.788;41.368;2023-04-07T09:57:50;99794.69;;;15.73;29.51
65384;BME280;51986;52.788;41.368;2023-04-07T10:00:18;99793.63;;;16.03;29.76
65384;BME280;51986;52.788;41.368;2023-04-07T10:02:46;99800.06;;;15.69;30.18
65384;BME280;51986;52.788;41.368;2023-04-07T10:05:14;99791.81;;;16.00;29.72
65384;BME280;51986;52.788;41.368;2023-04-07T10:07:41;99787.78;;;16.40;29.21
65384;BME280;51986;52.788;41.368;2023-04-07T10:10:09;99780.16;;;15.41;29.88
65384;BME280;51986;52.788;41.368;2023-04-07T10:12:37;99791.88;;;16.12;29.62
65384;BME280;51986;52.788;41.368;2023-04-07T10:15:05;99796.91;;;15.74;30.17
65384;BME280;51986;52.788;41.368;2023-04-07T10:17:32;99828.66;;;15.29;30.74
65384;BME280;51986;52.788;41.368;2023-04-07T10:20:03;99790.72;;;15.81;29.84
65384;BME280;51986;52.788;41.368;2023-04-07T10:22:32;99786.50;;;16.32;29.11
65384;BME280;51986;52.788;41.368;2023-04-07T10:25:11;99808.34;;;15.91;29.72
65384;BME280;51986;52.788;41.368;2023-04-07T10:27:58;99806.16;;;15.33;30.19
65384;BME280;51986;52.788;41.368;2023-04-07T10:30:30;99806.28;;;15.26;30.97
65384;BME280;51986;52.788;41.368;2023-04-07T10:32:57;99791.00;;;15.10;30.67
65384;BME280;51986;52.788;41.368;2023-04-07T10:35:26;99815.59;;;15.54;30.34
65384;BME280;51986;52.788;41.368;2023-04-07T10:38:12;99773.03;;;15.54;30.49
65384;BME280;51986;52.788;41.368;2023-04-07T10:40:40;99796.44;;;16.12;28.97
65384;BME280;51986;52.788;41.368;2023-04-07T10:43:08;99803.69;;;16.11;29.00
65384;BME280;51986;52.788;41.368;2023-04-07T10:48:16;99802.53;;;16.29;28.86
65384;BME280;51986;52.788;41.368;2023-04-07T10:53:33;99778.47;;;16.16;28.79
65384;BME280;51986;52.788;41.368;2023-04-07T10:56:00;99808.84;;;15.86;29.00
65384;BME280;51986;52.788;41.368;2023-04-07T10:58:29;99789.69;;;16.07;28.62
65384;BME280;51986;52.788;41.368;2023-04-07T11:03:40;99798.44;;;15.91;29.52
65384;BME280;51986;52.788;41.368;2023-04-07T11:06:10;99784.63;;;15.28;29.66
65384;BME280;51986;52.788;41.368;2023-04-07T11:08:45;99810.66;;;15.36;30.11
65384;BME280;51986;52.788;41.368;2023-04-07T11:11:34;99806.19;;;15.50;29.70
65384;BME280;51986;52.788;41.368;2023-04-07T11:14:01;99804.84;;;15.41;30.49
65384;BME280;51986;52.788;41.368;2023-04-07T11:16:36;99789.84;;;15.67;30.09
65384;BME280;51986;52.788;41.368;2023-04-07T11:19:03;99804.13;;;15.57;30.13
65384;BME280;51986;52.788;41.368;2023-04-07T11:21:31;99807.78;;;15.63;30.05
65384;BME280;51986;52.788;41.368;2023-04-07T11:23:58;99799.25;;;14.76;30.89
65384;BME280;51986;52.788;41.368;2023-04-07T11:26:26;99809.47;;;14.98;30.37
65384;BME280;51986;52.788;41.368;2023-04-07T11:28:55;99786.78;;;14.93;30.25
65384;BME280;51986;52.788;41.368;2023-04-07T11:31:30;99783.09;;;15.47;29.53
65384;BME280;51986;52.788;41.368;2023-04-07T11:33:59;99815.56;;;15.38;29.79
65384;BME280;51986;52.788;41.368;2023-04-07T11:36:37;99793.75;;;15.47;29.56
65384;BME280;51986;52.788;41.368;2023-04-07T11:39:05;99811.28;;;15.24;29.90
65384;BME280;51986;52.788;41.368;2023-04-07T11:41:32;99788.38;;;15.83;29.45
65384;BME280;51986;52.788;41.368;2023-04-07T11:44:10;99800.09;;;15.33;29.51
65384;BME280;51986;52.788;41.368;2023-04-07T11:46:57;99807.97;;;15.56;29.60
65384;BME280;51986;52.788;41.368;2023-04-07T11:49:26;99804.63;;;14.73;30.01
65384;BME280;51986;52.788;41.368;2023-04-07T11:52:03;99807.69;;;14.91;29.98
65384;BME280;51986;52.788;41.368;2023-04-07T11:54:51;99818.41;;;15.47;29.28
65384;BME280;51986;52.788;41.368;2023-04-07T11:57:28;99800.22;;;15.26;29.42
65384;BME280;51986;52.788;41.368;2023-04-07T12:00:06;99813.34;;;14.93;29.69
65384;BME280;51986;52.788;41.368;2023-04-07T12:02:34;99809.53;;;14.74;29.31
65384;BME280;51986;52.788;41.368;2023-04-07T12:05:02;99806.69;;;14.42;30.10
65384;BME280;51986;52.788;41.368;2023-04-07T12:07:29;99792.06;;;14.53;30.05
65384;BME280;51986;52.788;41.368;2023-04-07T12:09:56;99805.47;;;14.46;29.88
65384;BME280;51986;52.788;41.368;2023-04-07T12:12:27;99777.50;;;14.61;29.83
65384;BME280;51986;52.788;41.368;2023-04-07T12:14:55;99822.00;;;14.97;29.18
65384;BME280;51986;52.788;41.368;2023-04-07T12:17:24;99813.75;;;15.11;29.78
65384;BME280;51986;52.788;41.368;2023-04-07T12:19:52;99839.69;;;15.47;29.48
65384;BME280;51986;52.788;41.368;2023-04-07T12:22:19;99806.16;;;15.33;29.42
65384;BME280;51986;52.788;41.368;2023-04-07T12:24:46;99797.53;;;15.46;28.51
65384;BME280;51986;52.788;41.368;2023-04-07T12:27:13;99812.03;;;15.25;29.29
65384;BME280;51986;52.788;41.368;2023-04-07T12:29:40;99804.50;;;15.20;28.06
65384;BME280;51986;52.788;41.368;2023-04-07T12:32:07;99826.69;;;14.46;29.16
65384;BME280;51986;52.788;41.368;2023-04-07T12:34:34;99818.31;;;14.91;28.86
65384;BME280;51986;52.788;41.368;2023-04-07T12:37:01;99797.88;;;14.88;28.58
65384;BME280;51986;52.788;41.368;2023-04-07T12:39:28;99794.63;;;14.80;28.65
65384;BME280;51986;52.788;41.368;2023-04-07T12:41:56;99798.72;;;15.05;28.00
65384;BME280;51986;52.788;41.368;2023-04-07T12:44:23;99806.31;;;14.83;28.10
65384;BME280;51986;52.788;41.368;2023-04-07T12:46:50;99810.97;;;14.99;28.45
65384;BME280;51986;52.788;41.368;2023-04-07T12:49:17;99819.50;;;15.10;28.05
65384;BME280;51986;52.788;41.368;2023-04-07T12:51:44;99816.25;;;15.22;27.80
65384;BME280;51986;52.788;41.368;2023-04-07T12:54:11;99819.75;;;14.96;27.65
65384;BME280;51986;52.788;41.368;2023-04-07T12:56:38;99811.47;;;14.94;27.35
65384;BME280;51986;52.788;41.368;2023-04-07T12:59:05;99802.19;;;14.82;27.48
65384;BME280;51986;52.788;41.368;2023-04-07T13:01:32;99814.66;;;15.05;28.01
65384;BME280;51986;52.788;41.368;2023-04-07T13:04:00;99801.75;;;14.83;27.98
65384;BME280;51986;52.788;41.368;2023-04-07T13:06:27;99816.25;;;14.79;27.47
65384;BME280;51986;52.788;41.368;2023-04-07T13:08:54;99811.53;;;14.90;28.19
65384;BME280;51986;52.788;41.368;2023-04-07T13:11:21;99814.22;;;14.20;28.19
65384;BME280;51986;52.788;41.368;2023-04-07T13:13:47;99801.38;;;14.18;28.15
65384;BME280;51986;52.788;41.368;2023-04-07T13:16:15;99828.50;;;14.73;27.83
65384;BME280;51986;52.788;41.368;2023-04-07T13:18:42;99823.63;;;14.71;28.20
65384;BME280;51986;52.788;41.368;2023-04-07T13:21:09;99813.94;;;14.37;28.31